Dauntless Aviation
Airports North America Canada
CYSN
YCM
CYSN
YSN

Niagara District Airport

St Catharines, CANADA

Airport Info
Suggest Updated Information for this Airport

Location

Latitude / Longitude: 43°11'30"N / 79°10'18"W
  43°11.502'N / 79°10.302'W
  43.1917 / -79.1717

Nearby radio navigation aids

SN ST. CATHARINES NDB. 64.1° 4.5nm from SN to field.

Runway Information

Runway 01 /19

Dimensions: 2500 x 75 ft.
Surface: ASP
 
Runway 01
Runway 19
Latitude: 43.186944 43.193789
Longitude: -79.178333 -79.177944
Elevation: 321 ft. 321 ft.
Runway true heading: 358.3 178.3
 

Runway 06 /24

Dimensions: 5000 x 150 ft.
Surface: ASP
 
Runway 06
Runway 24
Latitude: 43.188 43.196167
Longitude: -79.178667 -79.163667
Elevation: 321 ft. 321 ft.
Runway true heading: 49.3 229.3
 

Runway 11 /29

Dimensions: 2000 x 75 ft.
Surface: ASP
 
Runway 11
Runway 29
Latitude: 43.193694 43.192706
Longitude: -79.177944 -79.170553
Elevation: 321 ft. 321 ft.
Runway true heading: 96.3 276.3
 

Instrument Procedures

  Aerodrome Chart
  CAC: Aerodrome Chart
  Airport Diagram

IAPs (Instrument Approach Procedures)

  RNAV (GNSS) Rwy 24
  NDB Rwy 06 (GNSS)
  CFS: ST. CATHARINES VFR Terminal Procedures Chart
  CFS: Aerodrome Information
Satellite photo at:
Airport distance calculator
From:
Weather Reports

METAR

KIAG
11.4nm E
KIAG 300953Z AUTO 23011G19KT 10SM BKN042 OVC050 07/03 A2976 RMK AO2 SLP082 T00670033
KBUF
24.7nm E
KBUF 300954Z 23021G32KT 10SM -RA OVC070 08/03 A2977 RMK AO2 PK WND 23032/0948 RAB09E25B49 SLP083 P0000 T00780033

TAF

KIAG
11.4nm E
KIAG 300901Z 3009/3106 23017G25KT P6SM SCT080 OVC110 FM301200 23013G23KT P6SM OVC030 TEMPO 3013/3015 4SM -SHRA OVC015 FM301500 23013G23KT 6SM -SHRA BR OVC015 FM302200 24010G18KT 6SM -SHRA OVC012 FM310100 26009KT P6SM OVC015 FM310300 25008KT P6SM OVC007
KBUF
24.7nm E
KBUF 300901Z 3009/3106 22020G30KT P6SM BKN090 OVC110 FM301200 24014G25KT P6SM OVC030 TEMPO 3013/3015 4SM -SHRA OVC015 FM301500 24015G27KT 6SM -SHRA BR OVC012 FM301800 24015G26KT 6SM -SHRA OVC007 FM302300 24011G17KT 6SM -SHRA OVC012 FM310200 25009KT P6SM OVC007
CYTZ
28.3nm NW
TAF CYTZ 300738Z 3008/3108 22012KT P6SM SCT020 BKN040 TEMPO 3008/3010 P6SM -SHRA BKN020 OVC040 FM301000 24012G22KT P6SM -SHRA OVC015 TEMPO 3010/3021 P6SM NSW SCT015 OVC025 FM302100 28010G20KT P6SM -SHRA OVC015 BECMG 3022/3024 30008KT FM310300 35008KT P6SM BKN009 OVC012 RMK FCST BASED ON AUTO OBS. NXT FCST BY 301400Z
CYHM
33.4nm SW
TAF CYHM 300542Z 3006/3106 23012G22KT P6SM FEW020 BKN040 TEMPO 3006/3009 P6SM -SHRA BKN020 OVC030 FM300900 23012G22KT P6SM -SHRA OVC015 TEMPO 3009/3012 P6SM NSW SCT015 OVC025 BECMG 3014/3016 26012G22KT FM302200 27010G20KT P6SM BKN015 OVC030 BECMG 3100/3102 27008KT FM310500 01008KT P6SM BKN007 OVC012 RMK NXT FCST BY 301200Z
CYYZ
34.5nm NW
TAF CYYZ 300838Z 3009/3112 24010G20KT P6SM -RA SCT020 BKN030 OVC070 TEMPO 3009/3012 BKN015 OVC030 FM301200 25012G22KT P6SM -SHRA OVC015 TEMPO 3012/3021 P6SM NSW SCT015 OVC025 BECMG 3016/3018 26010G20KT FM302100 29010G20KT P6SM -SHRA OVC015 FM310300 36010KT P6SM BKN009 OVC012 RMK NXT FCST BY 301200Z
Safelog

 

Dauntless Aviation

© 2007-2020 Dauntless Aviation, all rights reserved
Information provided via PilotNav comes from a variety of official and unofficial data sources. As errors are possible, do not use PilotNav for primary flight planning purposes. Verify any information that you receive via PilotNav with current and canonical charts and other official documents. The material in this database is subject to database copyrights held by Dauntless Aviation and may not be copied without the express permission of Dauntless Aviation - licenses for use of part of all of this data are available for purchase; enquire via the Dauntless Aviation helpdesk. A number of mechanisms and markers exist in the database to protect against and identify infringement / copyright. Automated queries against this website are stictly prohibited, and all activity is logged and analyzed.